^^
Meteo Knjazevac Station Historical Data
Daily Summary for May 13, 2021 Units:  English    Metric   Both
Daily Weekly Monthly Yearly Custom
  High: Low: Average:
Temperature: 69.4 °F 59.9 °F 63.3 °F
Dew Point: 60.6 °F 56.5 °F 58.2 °F
Humidity: 90% 73% 84%
Wind Speed: 2mph 0mph 0.6mph
Wind Gust: 5mph - -
Wind- - WNW
Pressure: 30.04 in 30.02 in -
Precipitation: 0.00 in    
Historical Graphs
 
 
Tabular Data for May 13, 2021
Time Temperature Dew Point Pressure Wind Wind Speed Wind Gust Humidity Rainfall Rate (Hourly) solar Conditions
00:00 69.4 °F 60.4 °F 30.03 in Calm   3 mph 73% 0.00 in 0 W/m2
00:10 69.3 °F 60.6 °F 30.03 in Calm   3 mph 74% 0.00 in 0 W/m2
00:20 68.7 °F 60.1 °F 30.03 in Calm   2 mph 74% 0.00 in 0 W/m2
00:30 68.5 °F 59.9 °F 30.02 in North 1 mph 2 mph 74% 0.00 in 0 W/m2
00:40 68.1 °F 59.9 °F 30.02 in Calm   2 mph 75% 0.00 in 0 W/m2
00:50 67.5 °F 60 °F 30.02 in Calm   2 mph 77% 0.00 in 0 W/m2
01:00 66.9 °F 59.8 °F 30.02 in Calm   1 mph 78% 0.00 in 0 W/m2
01:10 66.5 °F 59.8 °F 30.02 in WNW 2 mph 3 mph 79% 0.00 in 0 W/m2
01:20 66.1 °F 59.4 °F 30.02 in West 1 mph 3 mph 79% 0.00 in 0 W/m2
01:30 65.7 °F 59 °F 30.02 in West 1 mph 5 mph 79% 0.00 in 0 W/m2
01:40 65.5 °F 59.1 °F 30.02 in Calm   2 mph 80% 0.00 in 0 W/m2
01:50 65.1 °F 58.7 °F 30.02 in Calm   2 mph 80% 0.00 in 0 W/m2
02:00 64.6 °F 58.6 °F 30.03 in WSW 2 mph 3 mph 81% 0.00 in 0 W/m2
02:10 64.4 °F 58.4 °F 30.03 in NW 1 mph 3 mph 81% 0.00 in 0 W/m2
02:20 64.2 °F 58.6 °F 30.03 in West 2 mph 3 mph 82% 0.00 in 0 W/m2
02:30 64.2 °F 58.3 °F 30.03 in Calm   3 mph 81% 0.00 in 0 W/m2
02:40 64 °F 58.1 °F 30.03 in Calm   2 mph 81% 0.00 in 0 W/m2
02:50 63.7 °F 58.4 °F 30.03 in Calm   2 mph 83% 0.00 in 0 W/m2
03:00 63.3 °F 58.1 °F 30.03 in Calm   1 mph 83% 0.00 in 0 W/m2
03:10 63.1 °F 58.2 °F 30.03 in Calm   2 mph 84% 0.00 in 0 W/m2
03:20 63.1 °F 58.2 °F 30.03 in Calm   2 mph 84% 0.00 in 0 W/m2
03:30 62.6 °F 57.7 °F 30.03 in Calm   2 mph 84% 0.00 in 0 W/m2
03:40 62.2 °F 57.7 °F 30.03 in West 1 mph 3 mph 85% 0.00 in 0 W/m2
03:50 61.9 °F 57.3 °F 30.04 in West 1 mph 2 mph 85% 0.00 in 0 W/m2
04:00 61.7 °F 57.1 °F 30.03 in West 1 mph 2 mph 85% 0.00 in 0 W/m2
04:10 61.2 °F 56.9 °F 30.03 in West 1 mph 3 mph 86% 0.00 in 0 W/m2
04:20 61.2 °F 56.9 °F 30.03 in West 1 mph 5 mph 86% 0.00 in 0 W/m2
04:30 61.2 °F 56.9 °F 30.04 in West 2 mph 5 mph 86% 0.00 in 0 W/m2
04:40 61 °F 57.4 °F 30.04 in West 2 mph 4 mph 88% 0.00 in 0 W/m2
04:50 61 °F 57.4 °F 30.04 in West 1 mph 3 mph 88% 0.00 in 0 W/m2
05:00 60.6 °F 57 °F 30.03 in Calm   2 mph 88% 0.00 in 0 W/m2
05:10 60.4 °F 56.9 °F 30.03 in West 1 mph 2 mph 88% 0.00 in 7 W/m2
05:20 60.3 °F 56.7 °F 30.03 in West 1 mph 2 mph 88% 0.00 in 13 W/m2
05:30 60.1 °F 56.8 °F 30.03 in Calm   2 mph 89% 0.00 in 23 W/m2
05:40 60.3 °F 57 °F 30.03 in Calm   1 mph 89% 0.00 in 32 W/m2
05:50 60.1 °F 56.5 °F 30.03 in Calm   2 mph 88% 0.00 in 43 W/m2
06:00 59.9 °F 56.6 °F 30.03 in NW 1 mph 2 mph 89% 0.00 in 56 W/m2
06:10 60.1 °F 57.1 °F 30.03 in WNW 1 mph 3 mph 90% 0.00 in 69 W/m2
06:20 60.4 °F 57.5 °F 30.03 in WNW 1 mph 2 mph 90% 0.00 in 112 W/m2
06:30 60.6 °F 57.4 °F 30.03 in WNW 1 mph 2 mph 89% 0.00 in 137 W/m2
06:40 61 °F 58 °F 30.03 in Calm   2 mph 90% 0.00 in 166 W/m2
06:50 61.3 °F 58.1 °F 30.03 in Calm   2 mph 89% 0.00 in 194 W/m2
07:00 61.8 °F 58.8 °F 30.03 in NW 1 mph 4 mph 90% 0.00 in 224 W/m2
07:10 62.4 °F 59.1 °F 30.03 in NW 1 mph 4 mph 89% 0.00 in 254 W/m2
07:20 63.1 °F 59.5 °F 30.03 in NW 1 mph 3 mph 88% 0.00 in 289 W/m2
Knjazevac, Serbia
Compliments of Weather Underground - 2 mb